KLKR

Details ICAO KLKR
Name LANCASTER CO MC WHIRTER FLD
Region United States
Timezone America/New_York (UTC-5.0)
Plans Departing 3
Arriving 2
Stats Elevation 486 ft / 148 m (AMSL)
Location 34.722904° -80.854590°
Runways 1
Magnetic Variation 7.666° W
Sunrise 2017-12-16 12:25:30 UTC / 2017-12-16 07:25:30 Local
Sunset 2017-12-16 22:15:35 UTC / 2017-12-16 17:15:35 Local
Advertisement - Login to hide

Runways

ID Width Length Bearing (true) Bearing (mag) Surface Threshold Offset Overrun Length
06 100 ft / 30 m 5,999 ft / 1,829 m 58.40° 66.07° Asphalt 0 ft / 0 m 0 ft / 0 m
24 100 ft / 30 m 5,999 ft / 1,829 m 238.41° 246.08° Asphalt 660 ft / 201 m 0 ft / 0 m

Map

Weather


0- 5 10 15 20 25 30 35+ Temperature / ° C

Clouds and Precipitation
Forecast for 2017-12-16 12:00 UTC. Updated 30 minutes ago

Ground ~20,000 ft ~40,000 ft Winds

METAR

KLKR 161135Z AUTO 00000KT 10SM CLR M04/M04 A3025 RMK AO2

TAF

Not found

Frequencies

Unicom 122.72 MHz CTAF/UNICOM
Approach 120.05 MHz CHARLOTTE APP/DEP
Warning: Do not use this data for real-world aviation or navigation. No guarantee of current accuracy is given.